createdAt,value
2019-03-29T00:00:12.282Z,103055.67
2019-03-29T00:02:45.053Z,103061.67
2019-03-29T00:05:15.286Z,103062.64
2019-03-29T00:07:45.276Z,103056.11
2019-03-29T00:10:16.344Z,103058.53
2019-03-29T00:12:46.643Z,103065.56
2019-03-29T00:15:17.482Z,103065.11
2019-03-29T00:17:47.434Z,103058.22
2019-03-29T00:20:17.512Z,103056.72
2019-03-29T00:22:47.736Z,103065.99
2019-03-29T00:25:17.877Z,103065.95
2019-03-29T00:27:48.827Z,103062.98
2019-03-29T00:30:22.110Z,103066.64
2019-03-29T00:32:53.264Z,103064.33
2019-03-29T00:35:23.610Z,103059.12
2019-03-29T00:37:55.638Z,103054.98
2019-03-29T00:40:26.386Z,103061.56
2019-03-29T00:43:01.620Z,103059.57
2019-03-29T00:45:32.602Z,103059.64
2019-03-29T00:48:02.616Z,103055.91
2019-03-29T00:50:33.044Z,103049.59
2019-03-29T00:53:03.182Z,103051.98
2019-03-29T00:55:33.158Z,103055.86
2019-03-29T00:58:03.244Z,103049.09
2019-03-29T01:00:33.724Z,103050.67
2019-03-29T01:03:04.454Z,103050.02
2019-03-29T01:05:35.257Z,103040.75
2019-03-29T01:08:08.281Z,103048.41
2019-03-29T01:10:38.896Z,103043.54
2019-03-29T01:13:09.851Z,103048.95
2019-03-29T01:15:40.838Z,103045.58
2019-03-29T01:18:11.815Z,103043.41
2019-03-29T01:20:42.150Z,103044.56
2019-03-29T01:23:12.241Z,103041.04
2019-03-29T01:25:42.255Z,103041.41
2019-03-29T01:28:12.642Z,103033.76
2019-03-29T01:30:43.345Z,103029.77
2019-03-29T01:33:14.172Z,103023.12
2019-03-29T01:35:44.872Z,103030.05
2019-03-29T01:38:21.702Z,103025.59
2019-03-29T01:40:50.885Z,103021.44
2019-03-29T01:43:21.047Z,103027.88
2019-03-29T01:45:51.724Z,103020.45
2019-03-29T01:48:23.109Z,103023.68
2019-03-29T01:51:00.022Z,103012.81
2019-03-29T01:53:31.008Z,103025.89
2019-03-29T01:56:05.209Z,103025.14
2019-03-29T01:58:36.239Z,103015.65
2019-03-29T02:01:09.064Z,103010.48
2019-03-29T02:03:43.607Z,103012.38
2019-03-29T02:06:15.549Z,103010.88
2019-03-29T02:08:46.658Z,103002.23
2019-03-29T02:11:21.923Z,103001.95
2019-03-29T02:13:56.019Z,103000.24
2019-03-29T02:16:26.332Z,102997.31
2019-03-29T02:18:56.326Z,102997.21
2019-03-29T02:21:26.693Z,103004.85
2019-03-29T02:23:57.084Z,103010.33
2019-03-29T02:26:27.487Z,103003.59
2019-03-29T02:28:57.905Z,103011.50
2019-03-29T02:31:29.058Z,103007.41
2019-03-29T02:34:01.743Z,103008.33
2019-03-29T02:36:34.740Z,103004.75
2019-03-29T02:39:11.383Z,102991.27
2019-03-29T02:41:41.243Z,102988.84
2019-03-29T02:44:11.102Z,102987.26
2019-03-29T02:46:41.007Z,102992.84
2019-03-29T02:49:12.722Z,102989.69
2019-03-29T02:51:42.478Z,102992.19
2019-03-29T02:54:12.389Z,102996.22
2019-03-29T02:56:42.258Z,102994.31
2019-03-29T02:59:12.176Z,102991.88
2019-03-29T03:01:42.253Z,102991.55
2019-03-29T03:04:12.126Z,102988.61
2019-03-29T03:06:42.000Z,102986.16
2019-03-29T03:09:14.324Z,102987.22
2019-03-29T03:11:43.622Z,102992.51
2019-03-29T03:14:13.636Z,102991.73
2019-03-29T03:16:43.558Z,102990.16
2019-03-29T03:19:13.382Z,102991.84
2019-03-29T03:21:43.521Z,102990.03
2019-03-29T03:24:13.388Z,102990.88
2019-03-29T03:26:43.205Z,102989.66
2019-03-29T03:29:13.290Z,102990.25
2019-03-29T03:31:43.154Z,102992.53
2019-03-29T03:34:12.980Z,102991.63
2019-03-29T03:36:42.837Z,102991.09
2019-03-29T03:39:30.196Z,102992.45
2019-03-29T03:41:44.295Z,102992.77
2019-03-29T03:44:14.139Z,102987.08
2019-03-29T03:46:44.040Z,102989.60
2019-03-29T03:49:13.856Z,102981.38
2019-03-29T03:51:43.654Z,102982.87
2019-03-29T03:54:13.532Z,102979.30
2019-03-29T03:56:43.987Z,102986.98
2019-03-29T03:59:14.111Z,102983.50
2019-03-29T04:01:44.013Z,102990.88
2019-03-29T04:04:13.978Z,102988.04
2019-03-29T04:06:43.830Z,102987.82
2019-03-29T04:09:13.700Z,102984.98
2019-03-29T04:11:43.799Z,102983.40
2019-03-29T04:14:13.610Z,102978.67
2019-03-29T04:16:43.547Z,102979.39
2019-03-29T04:19:13.479Z,102986.27
2019-03-29T04:21:43.362Z,102983.40
2019-03-29T04:24:13.259Z,102974.34
2019-03-29T04:26:43.181Z,102991.43
2019-03-29T04:29:12.993Z,102992.02
2019-03-29T04:31:42.865Z,102990.16
2019-03-29T04:34:12.878Z,102988.36
2019-03-29T04:36:42.723Z,102985.80
2019-03-29T04:39:12.616Z,102981.81
2019-03-29T04:41:42.577Z,102984.31
2019-03-29T04:44:12.406Z,102979.02
2019-03-29T04:46:42.263Z,102981.11
2019-03-29T04:49:12.357Z,102981.11
2019-03-29T04:51:42.617Z,102982.37
2019-03-29T04:54:12.488Z,102983.53
2019-03-29T04:56:42.494Z,102979.95
2019-03-29T04:59:12.387Z,102984.06
2019-03-29T05:01:42.263Z,102985.52
2019-03-29T05:04:12.250Z,102988.70
2019-03-29T05:06:42.095Z,102994.58
2019-03-29T05:09:11.988Z,102986.98
2019-03-29T05:11:42.002Z,102984.48
2019-03-29T05:14:11.805Z,102986.08
2019-03-29T05:16:41.677Z,102992.00
2019-03-29T05:19:11.747Z,102989.56
2019-03-29T05:21:41.670Z,102985.98
2019-03-29T05:24:11.558Z,102993.77
2019-03-29T05:26:41.362Z,102992.27
2019-03-29T05:29:11.181Z,102992.45
2019-03-29T05:31:41.065Z,102980.93
2019-03-29T05:34:10.907Z,102979.55
2019-03-29T05:36:40.691Z,102971.61
2019-03-29T05:39:10.552Z,102975.14
2019-03-29T05:41:40.507Z,102964.86
2019-03-29T05:44:10.387Z,102964.21
2019-03-29T05:46:40.214Z,102964.84
2019-03-29T05:49:10.208Z,102969.18
2019-03-29T05:51:40.085Z,102966.59
2019-03-29T05:54:09.996Z,102975.37
2019-03-29T05:56:39.938Z,102968.15
2019-03-29T05:59:09.776Z,102970.00
2019-03-29T06:01:39.629Z,102974.67
2019-03-29T06:04:09.609Z,102970.69
2019-03-29T06:06:39.488Z,102967.23
2019-03-29T06:09:09.403Z,102968.55
2019-03-29T06:11:39.267Z,102962.81
2019-03-29T06:14:09.085Z,102969.31
2019-03-29T06:16:39.579Z,102956.86
2019-03-29T06:19:09.637Z,102954.63
2019-03-29T06:21:39.513Z,102949.73
2019-03-29T06:24:09.416Z,102952.39
2019-03-29T06:26:39.592Z,102945.59
2019-03-29T06:29:09.461Z,102949.48
2019-03-29T06:31:39.430Z,102931.28
2019-03-29T06:34:09.636Z,102937.94
2019-03-29T06:36:39.980Z,102932.38
2019-03-29T06:39:11.202Z,102925.70
2019-03-29T06:41:41.040Z,102920.14
2019-03-29T06:44:10.874Z,102931.86
2019-03-29T06:46:40.811Z,102933.39
2019-03-29T06:49:10.851Z,102933.39
2019-03-29T06:51:40.680Z,102921.39
2019-03-29T06:54:10.782Z,102919.59
2019-03-29T06:56:40.650Z,102920.42
2019-03-29T06:59:10.447Z,102923.28
2019-03-29T07:01:40.588Z,102917.41
2019-03-29T07:04:10.726Z,102919.80
2019-03-29T07:06:40.556Z,102923.86
2019-03-29T07:09:10.786Z,102925.01
2019-03-29T07:11:40.612Z,102919.42
2019-03-29T07:14:10.479Z,102921.55
2019-03-29T07:16:40.421Z,102908.64
2019-03-29T07:19:10.424Z,102914.66
2019-03-29T07:21:40.321Z,102913.90
2019-03-29T07:24:10.462Z,102903.38
2019-03-29T07:26:40.328Z,102899.86
2019-03-29T07:29:10.156Z,102904.89
2019-03-29T07:31:40.060Z,102911.45
2019-03-29T07:34:10.137Z,102907.69
2019-03-29T07:36:39.998Z,102913.27
2019-03-29T07:39:09.872Z,102907.30
2019-03-29T07:41:39.767Z,102900.03
2019-03-29T07:44:09.631Z,102908.59
2019-03-29T07:46:39.542Z,102899.94
2019-03-29T07:49:09.625Z,102901.79
2019-03-29T07:51:39.447Z,102897.83
2019-03-29T07:54:09.349Z,102900.00
2019-03-29T07:56:39.456Z,102892.59
2019-03-29T07:59:09.354Z,102888.40
2019-03-29T08:01:39.251Z,102884.27
2019-03-29T08:04:10.047Z,102890.09
2019-03-29T08:06:39.835Z,102888.34
2019-03-29T08:09:21.794Z,102881.21
2019-03-29T08:11:46.472Z,102884.24
2019-03-29T08:14:14.961Z,102876.16
2019-03-29T08:16:44.843Z,102868.16
2019-03-29T08:19:14.686Z,102870.16
2019-03-29T08:21:44.518Z,102863.16
2019-03-29T08:24:14.499Z,102873.48
2019-03-29T08:26:44.351Z,102881.12
2019-03-29T08:29:14.217Z,102860.05
2019-03-29T08:31:44.194Z,102863.03
2019-03-29T08:34:14.038Z,102837.50
2019-03-29T08:36:43.924Z,102863.89
2019-03-29T08:39:27.423Z,102856.67
2019-03-29T08:41:59.057Z,102858.56
2019-03-29T08:44:17.298Z,102861.87
2019-03-29T08:46:47.198Z,102860.75
2019-03-29T08:49:17.314Z,102856.49
2019-03-29T08:51:47.112Z,102862.70
2019-03-29T08:54:16.992Z,102858.98
2019-03-29T08:56:46.821Z,102848.16
2019-03-29T08:59:17.683Z,102857.56
2019-03-29T09:01:47.766Z,102854.95
2019-03-29T09:04:17.832Z,102853.56
2019-03-29T09:06:53.797Z,102841.02
2019-03-29T09:09:19.417Z,102841.88
2019-03-29T09:11:49.278Z,102840.27
2019-03-29T09:14:19.140Z,102836.94
2019-03-29T09:16:49.005Z,102838.48
2019-03-29T09:19:18.850Z,102837.48
2019-03-29T09:21:48.671Z,102836.45
2019-03-29T09:24:22.213Z,102833.81
2019-03-29T09:26:50.144Z,102825.98
2019-03-29T09:29:20.094Z,102826.05
2019-03-29T09:31:49.935Z,102833.27
2019-03-29T09:34:19.789Z,102836.31
2019-03-29T09:36:49.637Z,102827.75
2019-03-29T09:39:19.562Z,102817.42
2019-03-29T09:41:49.424Z,102825.47
2019-03-29T09:44:19.554Z,102821.83
2019-03-29T09:46:49.515Z,102813.48
2019-03-29T09:49:19.347Z,102813.48
2019-03-29T09:51:49.389Z,102800.41
2019-03-29T09:54:20.597Z,102804.12
2019-03-29T09:56:50.705Z,102804.12
2019-03-29T09:59:23.129Z,102810.31
2019-03-29T10:01:53.945Z,102810.31
2019-03-29T10:04:23.904Z,102801.95
2019-03-29T10:06:53.931Z,102787.55
2019-03-29T10:09:23.801Z,102805.29
2019-03-29T10:11:53.614Z,102785.08
2019-03-29T10:14:23.454Z,102785.08
2019-03-29T10:16:53.355Z,102785.44
2019-03-29T10:19:23.170Z,102792.34
2019-03-29T10:21:53.231Z,102795.09
2019-03-29T10:24:23.156Z,102773.81
2019-03-29T10:26:53.408Z,102782.58
2019-03-29T10:29:23.428Z,102773.23
2019-03-29T10:31:53.322Z,102776.27
2019-03-29T10:34:23.175Z,102786.72
2019-03-29T10:36:53.018Z,102776.36
2019-03-29T10:39:26.112Z,102776.33
2019-03-29T10:41:54.465Z,102777.36
2019-03-29T10:44:24.305Z,102755.01
2019-03-29T10:46:54.250Z,102751.29
2019-03-29T10:49:24.355Z,102749.09
2019-03-29T10:51:54.177Z,102751.06
2019-03-29T10:54:24.054Z,102754.39
2019-03-29T10:56:53.938Z,102750.80
2019-03-29T10:59:27.544Z,102756.27
2019-03-29T11:01:55.528Z,102747.98
2019-03-29T11:04:25.403Z,102744.31
2019-03-29T11:06:55.254Z,102741.15
2019-03-29T11:09:25.263Z,102739.13
2019-03-29T11:11:55.080Z,102747.18
2019-03-29T11:14:24.920Z,102736.22
2019-03-29T11:16:55.245Z,102736.50
2019-03-29T11:19:25.126Z,102734.72
2019-03-29T11:21:54.988Z,102735.56
2019-03-29T11:24:25.072Z,102730.11
2019-03-29T11:26:54.881Z,102727.45
2019-03-29T11:29:24.834Z,102720.57
2019-03-29T11:31:54.953Z,102734.31
2019-03-29T11:34:24.773Z,102720.33
2019-03-29T11:36:54.666Z,102734.17
2019-03-29T11:39:27.491Z,102738.89
2019-03-29T11:41:56.432Z,102738.34
2019-03-29T11:44:26.484Z,102738.42
2019-03-29T11:46:56.368Z,102731.77
2019-03-29T11:49:26.233Z,102739.20
2019-03-29T11:51:56.173Z,102726.73
2019-03-29T11:54:26.055Z,102721.96
2019-03-29T11:56:55.862Z,102724.41
2019-03-29T11:59:25.777Z,102708.29
2019-03-29T12:01:55.787Z,102705.49
2019-03-29T12:04:25.794Z,102706.04
2019-03-29T12:06:55.719Z,102696.56
2019-03-29T12:09:25.669Z,102706.75
2019-03-29T12:11:55.546Z,102696.22
2019-03-29T12:14:25.428Z,102696.28
2019-03-29T12:16:55.370Z,102686.56
2019-03-29T12:19:25.375Z,102687.28
2019-03-29T12:21:55.470Z,102686.63
2019-03-29T12:24:25.419Z,102677.15
2019-03-29T12:26:55.316Z,102685.92
2019-03-29T12:29:25.359Z,102687.14
2019-03-29T12:31:55.462Z,102672.12
2019-03-29T12:34:25.315Z,102663.27
2019-03-29T12:36:55.276Z,102655.23
2019-03-29T12:39:25.149Z,102655.75
2019-03-29T12:41:55.007Z,102658.54
2019-03-29T12:44:25.138Z,102651.07
2019-03-29T12:46:55.012Z,102645.98
2019-03-29T12:49:24.895Z,102648.83
2019-03-29T12:51:54.750Z,102639.98
2019-03-29T12:54:24.740Z,102642.43
2019-03-29T12:56:54.802Z,102638.24
2019-03-29T12:59:24.772Z,102636.05
2019-03-29T13:01:54.664Z,102626.66
2019-03-29T13:04:24.535Z,102629.20
2019-03-29T13:06:54.566Z,102622.18
2019-03-29T13:09:24.445Z,102612.98
2019-03-29T13:11:54.383Z,102613.02
2019-03-29T13:14:24.669Z,102625.81
2019-03-29T13:16:54.624Z,102610.28
2019-03-29T13:19:24.498Z,102603.28
2019-03-29T13:21:54.387Z,102609.64
2019-03-29T13:24:24.302Z,102609.17
2019-03-29T13:26:54.513Z,102606.44
2019-03-29T13:29:24.781Z,102592.58
2019-03-29T13:31:54.657Z,102603.13
2019-03-29T13:34:24.481Z,102591.78
2019-03-29T13:36:54.525Z,102593.72
2019-03-29T13:39:24.518Z,102597.34
2019-03-29T13:41:54.381Z,102588.20
2019-03-29T13:44:26.779Z,102588.73
2019-03-29T13:46:56.001Z,102589.02
2019-03-29T13:49:26.114Z,102585.95
2019-03-29T13:51:55.952Z,102582.34
2019-03-29T13:54:25.800Z,102574.27
2019-03-29T13:56:55.815Z,102575.64
2019-03-29T13:59:25.639Z,102574.81
2019-03-29T14:01:55.512Z,102568.72
2019-03-29T14:04:25.579Z,102558.94
2019-03-29T14:06:55.406Z,102564.20
2019-03-29T14:09:25.356Z,102561.70
2019-03-29T14:11:55.278Z,102554.22
2019-03-29T14:14:37.622Z,102546.19
2019-03-29T14:16:57.102Z,102548.70
2019-03-29T14:19:26.926Z,102540.30
2019-03-29T14:21:56.792Z,102540.87
2019-03-29T14:24:26.906Z,102536.72
2019-03-29T14:26:56.753Z,102539.47
2019-03-29T14:29:26.590Z,102535.02
2019-03-29T14:31:56.443Z,102527.00
2019-03-29T14:34:26.507Z,102528.95
2019-03-29T14:36:59.243Z,102528.94
2019-03-29T14:39:29.075Z,102525.62
2019-03-29T14:42:00.739Z,102533.06
2019-03-29T14:44:30.603Z,102521.16
2019-03-29T14:47:00.523Z,102516.40
2019-03-29T14:49:30.620Z,102526.08
2019-03-29T14:52:00.638Z,102524.92
2019-03-29T14:54:30.716Z,102518.00
2019-03-29T14:57:00.928Z,102525.44
2019-03-29T14:59:30.796Z,102517.41
2019-03-29T15:02:00.648Z,102519.62
2019-03-29T15:04:30.482Z,102524.56
2019-03-29T15:07:00.376Z,102520.09
2019-03-29T15:09:30.461Z,102518.70
2019-03-29T15:12:00.264Z,102513.68
2019-03-29T15:14:30.118Z,102509.78
2019-03-29T15:17:00.245Z,102502.25
2019-03-29T15:19:30.225Z,102500.80
2019-03-29T15:22:00.053Z,102504.94
2019-03-29T15:24:29.949Z,102499.92
2019-03-29T15:26:59.781Z,102498.79
2019-03-29T15:29:29.677Z,102494.33
2019-03-29T15:31:59.583Z,102494.30
2019-03-29T15:34:29.607Z,102492.64
2019-03-29T15:36:59.538Z,102490.98
2019-03-29T15:39:29.447Z,102492.64
2019-03-29T15:41:59.633Z,102494.55
2019-03-29T15:44:29.474Z,102481.78
2019-03-29T15:46:59.408Z,102483.10
2019-03-29T15:49:29.441Z,102478.89
2019-03-29T15:51:59.289Z,102476.12
2019-03-29T15:54:29.141Z,102483.00
2019-03-29T15:56:59.251Z,102485.98
2019-03-29T15:59:29.131Z,102485.11
2019-03-29T16:01:59.019Z,102488.47
2019-03-29T16:04:29.044Z,102483.42
2019-03-29T16:06:58.936Z,102475.91
2019-03-29T16:09:28.891Z,102481.96
2019-03-29T16:11:58.917Z,102486.59
2019-03-29T16:14:28.875Z,102481.57
2019-03-29T16:16:58.844Z,102478.17
2019-03-29T16:19:28.815Z,102467.63
2019-03-29T16:21:58.664Z,102473.11
2019-03-29T16:24:28.575Z,102478.33
2019-03-29T16:26:58.536Z,102466.63
2019-03-29T16:29:28.383Z,102466.02
2019-03-29T16:31:58.293Z,102467.88
2019-03-29T16:34:28.243Z,102459.03
2019-03-29T16:36:58.058Z,102460.69
2019-03-29T16:39:27.972Z,102466.36
2019-03-29T16:41:57.883Z,102467.10
2019-03-29T16:44:27.731Z,102458.44
2019-03-29T16:46:57.618Z,102461.42
2019-03-29T16:49:27.674Z,102458.66
2019-03-29T16:51:57.514Z,102456.64
2019-03-29T16:54:27.374Z,102462.38
2019-03-29T16:56:57.502Z,102460.62
2019-03-29T16:59:27.347Z,102461.22
2019-03-29T17:01:57.278Z,102457.64
2019-03-29T17:04:27.392Z,102457.67
2019-03-29T17:06:57.236Z,102461.28
2019-03-29T17:09:27.358Z,102457.02
2019-03-29T17:11:57.408Z,102455.78
2019-03-29T17:14:27.240Z,102461.79
2019-03-29T17:16:57.236Z,102458.06
2019-03-29T17:19:27.188Z,102455.92
2019-03-29T17:21:57.005Z,102451.56
2019-03-29T17:24:26.953Z,102460.20
2019-03-29T17:26:57.048Z,102446.20
2019-03-29T17:29:26.907Z,102446.82
2019-03-29T17:31:56.744Z,102447.15
2019-03-29T17:34:26.845Z,102442.55
2019-03-29T17:36:56.724Z,102453.34
2019-03-29T17:39:26.587Z,102453.44
2019-03-29T17:41:56.864Z,102458.59
2019-03-29T17:44:26.696Z,102457.23
2019-03-29T17:46:56.605Z,102456.70
2019-03-29T17:49:26.471Z,102454.33
2019-03-29T17:51:56.298Z,102452.84
2019-03-29T17:54:26.173Z,102459.91
2019-03-29T17:56:56.069Z,102460.91
2019-03-29T17:59:25.925Z,102466.11
2019-03-29T18:02:08.844Z,102464.25
2019-03-29T18:04:27.661Z,102469.67
2019-03-29T18:06:57.476Z,102465.44
2019-03-29T18:09:27.374Z,102465.52
2019-03-29T18:11:57.234Z,102470.19
2019-03-29T18:14:27.080Z,102473.08
2019-03-29T18:16:56.948Z,102468.06
2019-03-29T18:19:26.802Z,102466.69
2019-03-29T18:21:56.654Z,102471.64
2019-03-29T18:24:26.569Z,102470.03
2019-03-29T18:26:56.646Z,102479.38
2019-03-29T18:29:26.451Z,102485.78
2019-03-29T18:31:56.336Z,102485.14
2019-03-29T18:34:26.491Z,102484.70
2019-03-29T18:36:58.146Z,102485.39
2019-03-29T18:39:28.464Z,102492.13
2019-03-29T18:41:58.486Z,102494.70
2019-03-29T18:44:28.324Z,102493.25
2019-03-29T18:46:58.459Z,102493.09
2019-03-29T18:49:28.298Z,102497.02
2019-03-29T18:51:58.169Z,102494.41
2019-03-29T18:54:28.071Z,102491.02
2019-03-29T18:56:57.882Z,102490.28
2019-03-29T18:59:27.826Z,102493.16
2019-03-29T19:01:58.053Z,102496.05
2019-03-29T19:04:27.903Z,102496.39
2019-03-29T19:06:57.711Z,102499.06
2019-03-29T19:09:27.754Z,102503.08
2019-03-29T19:11:57.631Z,102494.35
2019-03-29T19:14:27.444Z,102490.44
2019-03-29T19:16:59.170Z,102493.18
2019-03-29T19:19:29.139Z,102495.78
2019-03-29T19:21:59.126Z,102496.48
2019-03-29T19:24:29.039Z,102499.08
2019-03-29T19:26:58.921Z,102495.24
2019-03-29T19:29:28.930Z,102491.23
2019-03-29T19:31:58.770Z,102488.49
2019-03-29T19:34:28.615Z,102485.75
2019-03-29T19:37:01.449Z,102490.30
2019-03-29T19:39:30.327Z,102487.80
2019-03-29T19:42:00.332Z,102486.63
2019-03-29T19:44:30.141Z,102485.91
2019-03-29T19:47:12.760Z,102484.33
2019-03-29T19:49:33.945Z,102479.53
2019-03-29T19:52:03.965Z,102482.02
2019-03-29T19:54:33.843Z,102486.83
2019-03-29T19:57:03.702Z,102479.67
2019-03-29T19:59:33.805Z,102473.20
2019-03-29T20:02:03.775Z,102473.80
2019-03-29T20:04:33.617Z,102474.28
2019-03-29T20:07:04.152Z,102473.36
2019-03-29T20:09:34.090Z,102475.02
2019-03-29T20:12:03.960Z,102473.05
2019-03-29T20:14:33.913Z,102470.41
2019-03-29T20:17:03.840Z,102470.08
2019-03-29T20:19:33.748Z,102471.15
2019-03-29T20:22:03.622Z,102467.72
2019-03-29T20:24:33.585Z,102466.48
2019-03-29T20:27:03.394Z,102462.08
2019-03-29T20:29:33.452Z,102460.27
2019-03-29T20:32:03.435Z,102455.00
2019-03-29T20:34:33.438Z,102465.89
2019-03-29T20:37:03.324Z,102457.96
2019-03-29T20:39:33.305Z,102458.56
2019-03-29T20:42:03.257Z,102449.11
2019-03-29T20:44:33.081Z,102441.95
2019-03-29T20:47:03.052Z,102448.22
2019-03-29T20:49:32.962Z,102451.70
2019-03-29T20:52:03.085Z,102439.06
2019-03-29T20:54:33.013Z,102440.05
2019-03-29T20:57:02.930Z,102447.34
2019-03-29T20:59:32.927Z,102446.42
2019-03-29T21:02:02.831Z,102445.73
2019-03-29T21:04:32.693Z,102441.56
2019-03-29T21:07:02.612Z,102444.59
2019-03-29T21:09:32.516Z,102447.09
2019-03-29T21:12:02.513Z,102456.20
2019-03-29T21:14:32.370Z,102453.31
2019-03-29T21:17:02.303Z,102447.23
2019-03-29T21:19:32.175Z,102455.67
2019-03-29T21:22:01.994Z,102455.36
2019-03-29T21:24:31.934Z,102454.87
2019-03-29T21:27:01.944Z,102447.42
2019-03-29T21:29:32.074Z,102450.75
2019-03-29T21:32:01.950Z,102454.96
2019-03-29T21:34:31.867Z,102453.16
2019-03-29T21:37:01.936Z,102451.70
2019-03-29T21:39:31.819Z,102450.52
2019-03-29T21:42:01.716Z,102453.86
2019-03-29T21:44:31.749Z,102452.73
2019-03-29T21:47:01.709Z,102454.38
2019-03-29T21:49:31.589Z,102455.50
2019-03-29T21:52:01.645Z,102455.98
2019-03-29T21:54:31.656Z,102456.52
2019-03-29T21:57:01.631Z,102458.95
2019-03-29T21:59:31.709Z,102458.46
2019-03-29T22:02:01.607Z,102453.63
2019-03-29T22:04:31.406Z,102460.08
2019-03-29T22:07:01.335Z,102453.09
2019-03-29T22:09:37.262Z,102460.71
2019-03-29T22:12:03.073Z,102456.77
2019-03-29T22:14:32.931Z,102452.95
2019-03-29T22:17:02.897Z,102450.72
2019-03-29T22:19:32.951Z,102455.00
2019-03-29T22:22:02.859Z,102449.65
2019-03-29T22:24:32.768Z,102451.52
2019-03-29T22:27:02.901Z,102455.87
2019-03-29T22:29:32.736Z,102448.78
2019-03-29T22:32:02.595Z,102453.49
2019-03-29T22:34:32.619Z,102452.69
2019-03-29T22:37:02.623Z,102452.52
2019-03-29T22:39:32.493Z,102455.27
2019-03-29T22:42:02.547Z,102452.49
2019-03-29T22:44:32.481Z,102450.28
2019-03-29T22:47:02.326Z,102449.25
2019-03-29T22:49:32.370Z,102441.73
2019-03-29T22:52:02.340Z,102432.70
2019-03-29T22:54:32.249Z,102438.52
2019-03-29T22:57:02.148Z,102432.34
2019-03-29T22:59:32.965Z,102435.12
2019-03-29T23:02:03.098Z,102435.25
2019-03-29T23:04:32.952Z,102436.63
2019-03-29T23:07:02.811Z,102433.88
2019-03-29T23:09:32.871Z,102439.06
2019-03-29T23:12:02.809Z,102435.55
2019-03-29T23:14:32.610Z,102433.11
2019-03-29T23:17:02.557Z,102439.90
2019-03-29T23:19:32.397Z,102433.34
2019-03-29T23:22:02.375Z,102425.86
2019-03-29T23:24:32.341Z,102426.06
2019-03-29T23:27:02.299Z,102430.61
2019-03-29T23:29:32.229Z,102428.30
2019-03-29T23:32:02.051Z,102426.23
2019-03-29T23:34:31.888Z,102417.88
2019-03-29T23:37:01.974Z,102413.81
2019-03-29T23:39:31.804Z,102417.64
2019-03-29T23:42:01.677Z,102411.69
2019-03-29T23:44:31.812Z,102412.69
2019-03-29T23:47:01.701Z,102419.13
2019-03-29T23:49:31.569Z,102415.88
2019-03-29T23:52:01.564Z,102411.48
2019-03-29T23:54:31.388Z,102410.95
2019-03-29T23:57:01.229Z,102414.16
2019-03-29T23:59:31.246Z,102408.34
